sensor_id;sensor_type;location;lat;lon;timestamp;P1;durP1;ratioP1;P2;durP2;ratioP2
22318;SDS011;11327;52.334;9.506;2023-08-24T00:00:48;3.65;;;2.80;;
22318;SDS011;11327;52.334;9.506;2023-08-24T00:04:09;3.45;;;2.83;;
22318;SDS011;11327;52.334;9.506;2023-08-24T00:07:30;3.62;;;2.95;;
22318;SDS011;11327;52.334;9.506;2023-08-24T00:10:52;5.83;;;3.20;;
22318;SDS011;11327;52.334;9.506;2023-08-24T00:14:13;3.72;;;3.10;;
22318;SDS011;11327;52.334;9.506;2023-08-24T00:17:34;3.52;;;3.22;;
22318;SDS011;11327;52.334;9.506;2023-08-24T00:20:55;4.20;;;2.83;;
22318;SDS011;11327;52.334;9.506;2023-08-24T00:24:16;4.78;;;2.80;;
22318;SDS011;11327;52.334;9.506;2023-08-24T00:27:37;3.35;;;3.05;;
22318;SDS011;11327;52.334;9.506;2023-08-24T00:30:58;5.70;;;2.90;;
22318;SDS011;11327;52.334;9.506;2023-08-24T00:34:18;3.42;;;2.90;;
22318;SDS011;11327;52.334;9.506;2023-08-24T00:37:39;4.58;;;3.25;;
22318;SDS011;11327;52.334;9.506;2023-08-24T00:41:01;3.47;;;3.00;;
22318;SDS011;11327;52.334;9.506;2023-08-24T00:44:22;3.92;;;3.25;;
22318;SDS011;11327;52.334;9.506;2023-08-24T00:47:44;4.10;;;3.20;;
22318;SDS011;11327;52.334;9.506;2023-08-24T00:51:07;3.62;;;2.72;;
22318;SDS011;11327;52.334;9.506;2023-08-24T00:54:28;3.33;;;2.95;;
22318;SDS011;11327;52.334;9.506;2023-08-24T00:57:49;3.80;;;2.80;;
22318;SDS011;11327;52.334;9.506;2023-08-24T01:01:11;4.55;;;3.10;;
22318;SDS011;11327;52.334;9.506;2023-08-24T01:04:31;5.70;;;3.30;;
22318;SDS011;11327;52.334;9.506;2023-08-24T01:07:52;3.83;;;3.33;;
22318;SDS011;11327;52.334;9.506;2023-08-24T01:11:32;6.53;;;3.33;;
22318;SDS011;11327;52.334;9.506;2023-08-24T01:18:49;4.85;;;3.12;;
22318;SDS011;11327;52.334;9.506;2023-08-24T01:22:18;4.28;;;3.20;;
22318;SDS011;11327;52.334;9.506;2023-08-24T01:29:27;4.47;;;3.25;;
22318;SDS011;11327;52.334;9.506;2023-08-24T01:32:48;3.55;;;3.00;;
22318;SDS011;11327;52.334;9.506;2023-08-24T01:36:09;5.08;;;3.12;;
22318;SDS011;11327;52.334;9.506;2023-08-24T01:39:38;5.03;;;3.40;;
22318;SDS011;11327;52.334;9.506;2023-08-24T01:43:04;3.72;;;2.90;;
22318;SDS011;11327;52.334;9.506;2023-08-24T01:46:27;5.28;;;3.30;;
22318;SDS011;11327;52.334;9.506;2023-08-24T01:49:49;3.47;;;3.17;;
22318;SDS011;11327;52.334;9.506;2023-08-24T01:53:11;3.33;;;3.02;;
22318;SDS011;11327;52.334;9.506;2023-08-24T01:56:31;3.90;;;3.47;;
22318;SDS011;11327;52.334;9.506;2023-08-24T01:59:52;4.22;;;3.33;;
22318;SDS011;11327;52.334;9.506;2023-08-24T02:03:13;4.75;;;2.95;;
22318;SDS011;11327;52.334;9.506;2023-08-24T02:06:33;3.42;;;3.00;;
22318;SDS011;11327;52.334;9.506;2023-08-24T02:09:54;5.08;;;3.05;;
22318;SDS011;11327;52.334;9.506;2023-08-24T02:13:15;3.87;;;3.47;;
22318;SDS011;11327;52.334;9.506;2023-08-24T02:16:36;5.20;;;3.67;;
22318;SDS011;11327;52.334;9.506;2023-08-24T02:19:56;4.25;;;3.45;;
22318;SDS011;11327;52.334;9.506;2023-08-24T02:23:17;4.53;;;3.60;;
22318;SDS011;11327;52.334;9.506;2023-08-24T02:26:38;3.65;;;3.35;;
22318;SDS011;11327;52.334;9.506;2023-08-24T02:29:58;4.97;;;3.40;;
22318;SDS011;11327;52.334;9.506;2023-08-24T02:33:19;4.28;;;3.42;;
22318;SDS011;11327;52.334;9.506;2023-08-24T02:36:40;4.97;;;3.58;;
22318;SDS011;11327;52.334;9.506;2023-08-24T02:40:00;4.25;;;3.58;;
22318;SDS011;11327;52.334;9.506;2023-08-24T02:43:21;5.12;;;3.40;;
22318;SDS011;11327;52.334;9.506;2023-08-24T02:46:44;4.30;;;3.90;;
22318;SDS011;11327;52.334;9.506;2023-08-24T02:50:05;5.03;;;4.42;;
22318;SDS011;11327;52.334;9.506;2023-08-24T02:53:26;4.20;;;3.80;;
22318;SDS011;11327;52.334;9.506;2023-08-24T02:56:47;5.72;;;3.90;;
22318;SDS011;11327;52.334;9.506;2023-08-24T03:00:08;4.45;;;3.87;;
22318;SDS011;11327;52.334;9.506;2023-08-24T03:03:30;5.10;;;3.50;;
22318;SDS011;11327;52.334;9.506;2023-08-24T03:06:50;6.03;;;4.03;;
22318;SDS011;11327;52.334;9.506;2023-08-24T03:10:11;5.45;;;3.70;;
22318;SDS011;11327;52.334;9.506;2023-08-24T03:13:35;4.83;;;4.35;;
22318;SDS011;11327;52.334;9.506;2023-08-24T03:16:56;5.85;;;4.08;;
22318;SDS011;11327;52.334;9.506;2023-08-24T03:20:17;5.08;;;3.60;;
22318;SDS011;11327;52.334;9.506;2023-08-24T03:23:38;4.42;;;4.03;;
22318;SDS011;11327;52.334;9.506;2023-08-24T03:26:58;5.28;;;3.45;;
22318;SDS011;11327;52.334;9.506;2023-08-24T03:30:19;4.40;;;3.62;;
22318;SDS011;11327;52.334;9.506;2023-08-24T03:33:40;5.47;;;3.62;;
22318;SDS011;11327;52.334;9.506;2023-08-24T03:37:01;4.62;;;3.45;;
22318;SDS011;11327;52.334;9.506;2023-08-24T03:40:21;4.50;;;3.70;;
22318;SDS011;11327;52.334;9.506;2023-08-24T03:43:42;5.78;;;3.77;;
22318;SDS011;11327;52.334;9.506;2023-08-24T03:47:03;6.00;;;3.80;;
22318;SDS011;11327;52.334;9.506;2023-08-24T03:50:24;5.15;;;3.72;;
22318;SDS011;11327;52.334;9.506;2023-08-24T03:53:45;6.45;;;3.77;;
22318;SDS011;11327;52.334;9.506;2023-08-24T03:57:06;4.58;;;4.10;;
22318;SDS011;11327;52.334;9.506;2023-08-24T04:00:27;5.15;;;4.35;;
22318;SDS011;11327;52.334;9.506;2023-08-24T04:03:48;4.95;;;4.03;;
22318;SDS011;11327;52.334;9.506;2023-08-24T04:07:09;7.25;;;4.37;;
22318;SDS011;11327;52.334;9.506;2023-08-24T04:10:29;5.33;;;4.45;;
22318;SDS011;11327;52.334;9.506;2023-08-24T04:13:51;4.42;;;4.03;;
22318;SDS011;11327;52.334;9.506;2023-08-24T04:17:12;5.67;;;4.90;;
22318;SDS011;11327;52.334;9.506;2023-08-24T04:20:32;5.40;;;4.90;;
22318;SDS011;11327;52.334;9.506;2023-08-24T04:23:54;7.85;;;5.60;;
22318;SDS011;11327;52.334;9.506;2023-08-24T04:27:14;6.08;;;5.45;;
22318;SDS011;11327;52.334;9.506;2023-08-24T04:30:35;6.42;;;5.83;;
22318;SDS011;11327;52.334;9.506;2023-08-24T04:33:56;7.62;;;5.92;;
22318;SDS011;11327;52.334;9.506;2023-08-24T04:37:16;5.67;;;5.08;;
22318;SDS011;11327;52.334;9.506;2023-08-24T04:40:45;6.05;;;5.00;;
22318;SDS011;11327;52.334;9.506;2023-08-24T04:44:06;6.53;;;5.20;;
22318;SDS011;11327;52.334;9.506;2023-08-24T04:47:28;6.55;;;5.70;;
22318;SDS011;11327;52.334;9.506;2023-08-24T04:50:49;6.95;;;6.10;;
22318;SDS011;11327;52.334;9.506;2023-08-24T04:54:10;7.30;;;6.12;;
22318;SDS011;11327;52.334;9.506;2023-08-24T04:57:31;7.25;;;5.45;;
22318;SDS011;11327;52.334;9.506;2023-08-24T05:00:52;6.35;;;5.62;;
22318;SDS011;11327;52.334;9.506;2023-08-24T05:04:12;6.05;;;5.45;;
22318;SDS011;11327;52.334;9.506;2023-08-24T05:07:33;5.37;;;4.97;;
22318;SDS011;11327;52.334;9.506;2023-08-24T05:10:54;6.08;;;5.45;;
22318;SDS011;11327;52.334;9.506;2023-08-24T05:14:14;6.05;;;5.30;;
22318;SDS011;11327;52.334;9.506;2023-08-24T05:17:35;6.58;;;5.97;;
22318;SDS011;11327;52.334;9.506;2023-08-24T05:20:56;6.10;;;5.50;;
22318;SDS011;11327;52.334;9.506;2023-08-24T05:24:17;6.28;;;5.67;;
22318;SDS011;11327;52.334;9.506;2023-08-24T05:27:38;6.22;;;5.33;;
22318;SDS011;11327;52.334;9.506;2023-08-24T05:30:59;6.00;;;5.35;;
22318;SDS011;11327;52.334;9.506;2023-08-24T05:34:20;5.67;;;5.17;;
22318;SDS011;11327;52.334;9.506;2023-08-24T05:37:41;6.33;;;5.28;;
22318;SDS011;11327;52.334;9.506;2023-08-24T05:41:02;6.65;;;5.95;;
22318;SDS011;11327;52.334;9.506;2023-08-24T05:44:22;6.40;;;5.80;;
22318;SDS011;11327;52.334;9.506;2023-08-24T05:47:43;6.37;;;5.40;;
22318;SDS011;11327;52.334;9.506;2023-08-24T05:51:04;5.50;;;5.00;;
22318;SDS011;11327;52.334;9.506;2023-08-24T05:54:26;6.35;;;4.90;;
22318;SDS011;11327;52.334;9.506;2023-08-24T05:57:47;5.62;;;5.12;;
22318;SDS011;11327;52.334;9.506;2023-08-24T06:01:08;5.70;;;5.12;;
22318;SDS011;11327;52.334;9.506;2023-08-24T06:04:29;6.08;;;5.50;;
22318;SDS011;11327;52.334;9.506;2023-08-24T06:07:49;6.05;;;5.35;;
22318;SDS011;11327;52.334;9.506;2023-08-24T06:11:10;8.93;;;6.60;;
22318;SDS011;11327;52.334;9.506;2023-08-24T06:14:31;6.37;;;5.70;;
22318;SDS011;11327;52.334;9.506;2023-08-24T06:17:52;5.30;;;4.80;;
22318;SDS011;11327;52.334;9.506;2023-08-24T06:21:12;6.22;;;4.90;;
22318;SDS011;11327;52.334;9.506;2023-08-24T06:24:33;6.10;;;5.10;;
22318;SDS011;11327;52.334;9.506;2023-08-24T06:27:54;6.97;;;5.25;;
22318;SDS011;11327;52.334;9.506;2023-08-24T06:31:14;6.37;;;5.25;;
22318;SDS011;11327;52.334;9.506;2023-08-24T06:34:36;6.30;;;5.45;;
22318;SDS011;11327;52.334;9.506;2023-08-24T06:37:57;5.55;;;5.05;;
22318;SDS011;11327;52.334;9.506;2023-08-24T06:41:19;6.58;;;5.00;;
22318;SDS011;11327;52.334;9.506;2023-08-24T06:44:40;6.65;;;5.55;;
22318;SDS011;11327;52.334;9.506;2023-08-24T06:48:00;7.87;;;5.30;;
22318;SDS011;11327;52.334;9.506;2023-08-24T06:51:21;6.53;;;5.10;;
22318;SDS011;11327;52.334;9.506;2023-08-24T06:54:42;6.17;;;5.37;;
22318;SDS011;11327;52.334;9.506;2023-08-24T06:58:02;7.03;;;5.28;;
22318;SDS011;11327;52.334;9.506;2023-08-24T07:01:26;6.15;;;5.30;;
22318;SDS011;11327;52.334;9.506;2023-08-24T07:04:47;5.87;;;5.28;;
22318;SDS011;11327;52.334;9.506;2023-08-24T07:08:08;7.75;;;6.92;;
22318;SDS011;11327;52.334;9.506;2023-08-24T07:11:29;7.87;;;6.10;;
22318;SDS011;11327;52.334;9.506;2023-08-24T07:14:50;6.72;;;5.28;;
22318;SDS011;11327;52.334;9.506;2023-08-24T07:18:11;5.95;;;5.35;;
22318;SDS011;11327;52.334;9.506;2023-08-24T07:21:31;6.65;;;5.97;;
22318;SDS011;11327;52.334;9.506;2023-08-24T07:24:52;6.75;;;5.78;;
22318;SDS011;11327;52.334;9.506;2023-08-24T07:28:13;7.10;;;5.75;;
22318;SDS011;11327;52.334;9.506;2023-08-24T07:31:34;7.28;;;6.28;;
22318;SDS011;11327;52.334;9.506;2023-08-24T07:34:55;8.98;;;7.42;;
22318;SDS011;11327;52.334;9.506;2023-08-24T07:38:17;6.67;;;5.87;;
22318;SDS011;11327;52.334;9.506;2023-08-24T07:41:38;8.03;;;5.72;;
22318;SDS011;11327;52.334;9.506;2023-08-24T07:44:58;8.50;;;6.60;;
22318;SDS011;11327;52.334;9.506;2023-08-24T07:48:19;7.35;;;6.22;;
22318;SDS011;11327;52.334;9.506;2023-08-24T07:51:40;9.63;;;6.78;;
22318;SDS011;11327;52.334;9.506;2023-08-24T07:55:02;9.73;;;7.47;;
22318;SDS011;11327;52.334;9.506;2023-08-24T07:58:25;8.23;;;6.92;;
22318;SDS011;11327;52.334;9.506;2023-08-24T08:01:46;7.95;;;6.28;;
22318;SDS011;11327;52.334;9.506;2023-08-24T08:05:07;8.23;;;6.65;;
22318;SDS011;11327;52.334;9.506;2023-08-24T08:08:28;7.58;;;6.75;;
22318;SDS011;11327;52.334;9.506;2023-08-24T08:11:49;7.72;;;6.28;;
22318;SDS011;11327;52.334;9.506;2023-08-24T08:15:09;6.97;;;5.95;;
22318;SDS011;11327;52.334;9.506;2023-08-24T08:18:31;9.00;;;8.08;;
22318;SDS011;11327;52.334;9.506;2023-08-24T08:21:52;8.20;;;6.62;;
22318;SDS011;11327;52.334;9.506;2023-08-24T08:25:13;10.23;;;8.85;;
22318;SDS011;11327;52.334;9.506;2023-08-24T08:28:34;8.60;;;7.70;;
22318;SDS011;11327;52.334;9.506;2023-08-24T08:31:55;10.40;;;9.30;;
22318;SDS011;11327;52.334;9.506;2023-08-24T08:35:15;10.78;;;9.40;;
22318;SDS011;11327;52.334;9.506;2023-08-24T08:38:36;10.25;;;9.23;;
22318;SDS011;11327;52.334;9.506;2023-08-24T08:41:57;9.30;;;8.40;;
22318;SDS011;11327;52.334;9.506;2023-08-24T08:45:17;8.55;;;7.75;;
22318;SDS011;11327;52.334;9.506;2023-08-24T08:48:41;8.93;;;7.55;;
22318;SDS011;11327;52.334;9.506;2023-08-24T08:52:04;7.33;;;6.62;;
22318;SDS011;11327;52.334;9.506;2023-08-24T08:55:26;7.90;;;6.65;;
22318;SDS011;11327;52.334;9.506;2023-08-24T08:58:48;10.70;;;7.40;;
22318;SDS011;11327;52.334;9.506;2023-08-24T09:02:12;6.97;;;6.12;;
22318;SDS011;11327;52.334;9.506;2023-08-24T09:05:36;6.75;;;5.95;;
22318;SDS011;11327;52.334;9.506;2023-08-24T09:08:58;9.23;;;6.30;;
22318;SDS011;11327;52.334;9.506;2023-08-24T09:12:18;9.33;;;6.72;;
22318;SDS011;11327;52.334;9.506;2023-08-24T09:15:39;6.83;;;6.12;;
22318;SDS011;11327;52.334;9.506;2023-08-24T09:19:00;7.37;;;5.62;;
22318;SDS011;11327;52.334;9.506;2023-08-24T09:22:25;6.58;;;5.50;;
22318;SDS011;11327;52.334;9.506;2023-08-24T09:25:46;6.87;;;4.67;;
22318;SDS011;11327;52.334;9.506;2023-08-24T09:29:13;6.42;;;5.25;;
22318;SDS011;11327;52.334;9.506;2023-08-24T09:32:35;6.12;;;4.85;;
22318;SDS011;11327;52.334;9.506;2023-08-24T09:35:56;7.22;;;4.75;;
22318;SDS011;11327;52.334;9.506;2023-08-24T09:39:19;8.65;;;5.03;;
22318;SDS011;11327;52.334;9.506;2023-08-24T09:42:41;7.03;;;4.50;;
22318;SDS011;11327;52.334;9.506;2023-08-24T09:46:02;5.03;;;4.53;;
22318;SDS011;11327;52.334;9.506;2023-08-24T09:49:24;5.60;;;4.95;;
22318;SDS011;11327;52.334;9.506;2023-08-24T09:52:47;5.65;;;4.40;;
22318;SDS011;11327;52.334;9.506;2023-08-24T09:56:09;5.10;;;4.42;;
22318;SDS011;11327;52.334;9.506;2023-08-24T09:59:31;5.33;;;4.80;;
22318;SDS011;11327;52.334;9.506;2023-08-24T10:02:52;6.03;;;3.98;;
22318;SDS011;11327;52.334;9.506;2023-08-24T10:06:14;7.95;;;4.10;;
22318;SDS011;11327;52.334;9.506;2023-08-24T10:09:35;5.70;;;4.10;;
22318;SDS011;11327;52.334;9.506;2023-08-24T10:13:00;6.17;;;4.70;;
22318;SDS011;11327;52.334;9.506;2023-08-24T10:16:25;4.25;;;3.85;;
22318;SDS011;11327;52.334;9.506;2023-08-24T10:19:47;3.52;;;3.20;;
22318;SDS011;11327;52.334;9.506;2023-08-24T10:23:11;4.00;;;3.60;;
22318;SDS011;11327;52.334;9.506;2023-08-24T10:26:34;4.85;;;3.40;;
22318;SDS011;11327;52.334;9.506;2023-08-24T10:29:57;4.83;;;3.35;;
22318;SDS011;11327;52.334;9.506;2023-08-24T10:33:20;4.15;;;3.40;;
22318;SDS011;11327;52.334;9.506;2023-08-24T10:36:41;4.00;;;3.60;;
22318;SDS011;11327;52.334;9.506;2023-08-24T10:40:02;5.15;;;3.80;;
22318;SDS011;11327;52.334;9.506;2023-08-24T10:43:26;5.05;;;3.42;;
22318;SDS011;11327;52.334;9.506;2023-08-24T10:47:05;4.90;;;3.67;;
22318;SDS011;11327;52.334;9.506;2023-08-24T10:50:28;4.80;;;3.70;;
22318;SDS011;11327;52.334;9.506;2023-08-24T11:00:47;5.20;;;3.50;;
22318;SDS011;11327;52.334;9.506;2023-08-24T11:04:10;3.58;;;3.27;;
22318;SDS011;11327;52.334;9.506;2023-08-24T11:07:31;5.37;;;3.70;;
22318;SDS011;11327;52.334;9.506;2023-08-24T11:10:52;5.12;;;3.90;;
22318;SDS011;11327;52.334;9.506;2023-08-24T11:14:15;5.62;;;3.75;;
22318;SDS011;11327;52.334;9.506;2023-08-24T11:17:39;4.33;;;3.83;;
22318;SDS011;11327;52.334;9.506;2023-08-24T11:24:24;4.20;;;3.52;;
22318;SDS011;11327;52.334;9.506;2023-08-24T11:27:45;5.00;;;3.62;;
22318;SDS011;11327;52.334;9.506;2023-08-24T11:31:08;4.92;;;4.20;;
22318;SDS011;11327;52.334;9.506;2023-08-24T11:34:29;4.60;;;3.58;;
22318;SDS011;11327;52.334;9.506;2023-08-24T11:37:57;5.70;;;3.67;;
22318;SDS011;11327;52.334;9.506;2023-08-24T11:41:18;3.95;;;3.55;;
22318;SDS011;11327;52.334;9.506;2023-08-24T11:44:45;5.37;;;4.00;;
22318;SDS011;11327;52.334;9.506;2023-08-24T11:48:07;5.50;;;3.50;;
22318;SDS011;11327;52.334;9.506;2023-08-24T11:51:27;4.05;;;3.75;;
22318;SDS011;11327;52.334;9.506;2023-08-24T11:54:50;5.05;;;3.10;;
22318;SDS011;11327;52.334;9.506;2023-08-24T11:58:15;3.75;;;3.20;;
22318;SDS011;11327;52.334;9.506;2023-08-24T12:01:38;4.10;;;3.70;;
22318;SDS011;11327;52.334;9.506;2023-08-24T12:05:01;3.27;;;3.00;;
22318;SDS011;11327;52.334;9.506;2023-08-24T12:08:25;3.58;;;3.27;;
22318;SDS011;11327;52.334;9.506;2023-08-24T12:11:46;4.35;;;3.20;;
22318;SDS011;11327;52.334;9.506;2023-08-24T12:15:07;4.03;;;3.33;;
22318;SDS011;11327;52.334;9.506;2023-08-24T12:18:30;3.30;;;2.90;;
22318;SDS011;11327;52.334;9.506;2023-08-24T12:21:53;5.53;;;3.52;;
22318;SDS011;11327;52.334;9.506;2023-08-24T12:25:13;4.67;;;3.05;;
22318;SDS011;11327;52.334;9.506;2023-08-24T12:28:36;4.47;;;3.27;;
22318;SDS011;11327;52.334;9.506;2023-08-24T12:31:57;3.45;;;2.72;;
22318;SDS011;11327;52.334;9.506;2023-08-24T12:35:18;3.90;;;3.25;;
22318;SDS011;11327;52.334;9.506;2023-08-24T12:38:39;4.20;;;3.00;;
22318;SDS011;11327;52.334;9.506;2023-08-24T12:42:02;4.37;;;2.90;;
22318;SDS011;11327;52.334;9.506;2023-08-24T12:45:23;3.00;;;2.65;;
22318;SDS011;11327;52.334;9.506;2023-08-24T12:48:44;3.75;;;2.60;;
22318;SDS011;11327;52.334;9.506;2023-08-24T12:52:05;3.70;;;2.70;;
22318;SDS011;11327;52.334;9.506;2023-08-24T12:55:29;4.87;;;2.72;;
22318;SDS011;11327;52.334;9.506;2023-08-24T12:58:50;2.92;;;2.62;;
22318;SDS011;11327;52.334;9.506;2023-08-24T13:02:10;3.67;;;2.55;;
22318;SDS011;11327;52.334;9.506;2023-08-24T13:05:31;4.10;;;2.85;;
22318;SDS011;11327;52.334;9.506;2023-08-24T13:08:52;3.27;;;2.80;;
22318;SDS011;11327;52.334;9.506;2023-08-24T13:12:13;4.28;;;2.67;;
22318;SDS011;11327;52.334;9.506;2023-08-24T13:15:34;3.25;;;2.45;;
22318;SDS011;11327;52.334;9.506;2023-08-24T13:18:55;3.50;;;2.92;;
22318;SDS011;11327;52.334;9.506;2023-08-24T13:22:15;5.15;;;2.80;;
22318;SDS011;11327;52.334;9.506;2023-08-24T13:25:37;3.65;;;2.77;;
22318;SDS011;11327;52.334;9.506;2023-08-24T13:28:57;3.30;;;2.65;;
22318;SDS011;11327;52.334;9.506;2023-08-24T13:32:18;4.28;;;2.72;;
22318;SDS011;11327;52.334;9.506;2023-08-24T13:35:40;2.90;;;2.60;;
22318;SDS011;11327;52.334;9.506;2023-08-24T13:39:00;3.80;;;2.55;;
22318;SDS011;11327;52.334;9.506;2023-08-24T13:42:21;3.50;;;2.95;;
22318;SDS011;11327;52.334;9.506;2023-08-24T13:45:42;3.90;;;3.10;;
22318;SDS011;11327;52.334;9.506;2023-08-24T13:49:03;3.35;;;2.98;;
22318;SDS011;11327;52.334;9.506;2023-08-24T13:52:24;3.77;;;3.08;;
22318;SDS011;11327;52.334;9.506;2023-08-24T13:55:44;4.00;;;3.60;;
22318;SDS011;11327;52.334;9.506;2023-08-24T13:59:05;4.95;;;3.33;;
22318;SDS011;11327;52.334;9.506;2023-08-24T14:02:26;3.40;;;3.10;;
22318;SDS011;11327;52.334;9.506;2023-08-24T14:05:46;5.12;;;3.47;;
22318;SDS011;11327;52.334;9.506;2023-08-24T14:09:09;3.40;;;3.10;;
22318;SDS011;11327;52.334;9.506;2023-08-24T14:12:30;4.62;;;3.10;;
22318;SDS011;11327;52.334;9.506;2023-08-24T14:15:50;5.58;;;3.10;;
22318;SDS011;11327;52.334;9.506;2023-08-24T14:19:11;4.75;;;3.20;;
22318;SDS011;11327;52.334;9.506;2023-08-24T14:22:32;3.95;;;2.92;;
22318;SDS011;11327;52.334;9.506;2023-08-24T14:25:53;5.03;;;3.05;;
22318;SDS011;11327;52.334;9.506;2023-08-24T14:29:14;5.97;;;3.60;;
22318;SDS011;11327;52.334;9.506;2023-08-24T14:32:34;6.42;;;3.35;;
22318;SDS011;11327;52.334;9.506;2023-08-24T14:35:55;5.33;;;3.90;;
22318;SDS011;11327;52.334;9.506;2023-08-24T14:39:16;5.03;;;3.30;;
22318;SDS011;11327;52.334;9.506;2023-08-24T14:42:37;5.90;;;3.70;;
22318;SDS011;11327;52.334;9.506;2023-08-24T14:45:57;4.87;;;4.03;;
22318;SDS011;11327;52.334;9.506;2023-08-24T14:49:18;4.17;;;3.40;;
22318;SDS011;11327;52.334;9.506;2023-08-24T14:52:39;4.17;;;3.40;;
22318;SDS011;11327;52.334;9.506;2023-08-24T14:56:01;3.90;;;3.50;;
22318;SDS011;11327;52.334;9.506;2023-08-24T14:59:22;8.03;;;3.33;;
22318;SDS011;11327;52.334;9.506;2023-08-24T15:02:43;6.35;;;3.35;;
22318;SDS011;11327;52.334;9.506;2023-08-24T15:06:04;5.97;;;3.60;;
22318;SDS011;11327;52.334;9.506;2023-08-24T15:09:26;4.40;;;3.40;;
22318;SDS011;11327;52.334;9.506;2023-08-24T15:12:47;3.85;;;3.35;;
22318;SDS011;11327;52.334;9.506;2023-08-24T15:16:08;4.15;;;3.40;;
22318;SDS011;11327;52.334;9.506;2023-08-24T15:19:30;5.00;;;3.25;;
22318;SDS011;11327;52.334;9.506;2023-08-24T15:22:50;5.40;;;3.70;;
22318;SDS011;11327;52.334;9.506;2023-08-24T15:26:11;4.17;;;3.75;;
22318;SDS011;11327;52.334;9.506;2023-08-24T15:29:32;8.35;;;4.10;;
22318;SDS011;11327;52.334;9.506;2023-08-24T15:32:53;5.67;;;3.90;;
22318;SDS011;11327;52.334;9.506;2023-08-24T15:36:13;6.08;;;4.28;;
22318;SDS011;11327;52.334;9.506;2023-08-24T15:39:37;7.45;;;4.20;;
22318;SDS011;11327;52.334;9.506;2023-08-24T15:42:59;5.10;;;4.08;;
22318;SDS011;11327;52.334;9.506;2023-08-24T15:46:20;9.03;;;4.28;;
22318;SDS011;11327;52.334;9.506;2023-08-24T15:49:41;4.87;;;4.15;;
22318;SDS011;11327;52.334;9.506;2023-08-24T15:53:02;6.22;;;4.33;;
22318;SDS011;11327;52.334;9.506;2023-08-24T15:56:23;6.65;;;4.50;;
22318;SDS011;11327;52.334;9.506;2023-08-24T15:59:44;8.15;;;5.00;;
22318;SDS011;11327;52.334;9.506;2023-08-24T16:03:05;6.47;;;4.60;;
22318;SDS011;11327;52.334;9.506;2023-08-24T16:06:25;5.83;;;4.17;;
22318;SDS011;11327;52.334;9.506;2023-08-24T16:09:46;6.67;;;4.28;;
22318;SDS011;11327;52.334;9.506;2023-08-24T16:13:07;7.28;;;4.47;;
22318;SDS011;11327;52.334;9.506;2023-08-24T16:16:28;5.90;;;4.37;;
22318;SDS011;11327;52.334;9.506;2023-08-24T16:19:49;5.45;;;4.12;;
22318;SDS011;11327;52.334;9.506;2023-08-24T16:23:10;6.87;;;4.08;;
22318;SDS011;11327;52.334;9.506;2023-08-24T16:26:31;5.70;;;3.80;;
22318;SDS011;11327;52.334;9.506;2023-08-24T16:33:33;4.90;;;4.00;;
22318;SDS011;11327;52.334;9.506;2023-08-24T16:36:54;5.08;;;3.90;;
22318;SDS011;11327;52.334;9.506;2023-08-24T16:40:15;5.72;;;3.92;;
22318;SDS011;11327;52.334;9.506;2023-08-24T16:43:36;5.60;;;3.75;;
22318;SDS011;11327;52.334;9.506;2023-08-24T16:46:56;4.87;;;3.47;;
22318;SDS011;11327;52.334;9.506;2023-08-24T16:50:18;4.37;;;3.58;;
22318;SDS011;11327;52.334;9.506;2023-08-24T16:53:39;5.22;;;3.75;;
22318;SDS011;11327;52.334;9.506;2023-08-24T16:57:00;5.90;;;3.70;;
22318;SDS011;11327;52.334;9.506;2023-08-24T17:00:20;7.80;;;3.87;;
22318;SDS011;11327;52.334;9.506;2023-08-24T17:03:41;5.05;;;3.58;;
22318;SDS011;11327;52.334;9.506;2023-08-24T17:07:02;6.95;;;3.77;;
22318;SDS011;11327;52.334;9.506;2023-08-24T17:10:22;4.17;;;3.45;;
22318;SDS011;11327;52.334;9.506;2023-08-24T17:13:43;5.97;;;4.22;;
22318;SDS011;11327;52.334;9.506;2023-08-24T17:17:04;5.05;;;4.03;;
22318;SDS011;11327;52.334;9.506;2023-08-24T17:20:25;4.58;;;3.90;;
22318;SDS011;11327;52.334;9.506;2023-08-24T17:23:46;6.30;;;3.92;;
22318;SDS011;11327;52.334;9.506;2023-08-24T17:27:06;7.75;;;4.12;;
22318;SDS011;11327;52.334;9.506;2023-08-24T17:30:27;5.50;;;4.00;;
22318;SDS011;11327;52.334;9.506;2023-08-24T17:33:48;5.58;;;4.00;;
22318;SDS011;11327;52.334;9.506;2023-08-24T17:37:08;5.87;;;4.05;;
22318;SDS011;11327;52.334;9.506;2023-08-24T17:40:29;6.22;;;4.08;;
22318;SDS011;11327;52.334;9.506;2023-08-24T17:43:50;5.67;;;4.20;;
22318;SDS011;11327;52.334;9.506;2023-08-24T17:47:11;6.45;;;4.22;;
22318;SDS011;11327;52.334;9.506;2023-08-24T17:50:31;6.83;;;3.90;;
22318;SDS011;11327;52.334;9.506;2023-08-24T17:53:52;4.28;;;3.35;;
22318;SDS011;11327;52.334;9.506;2023-08-24T17:57:13;5.85;;;3.90;;
22318;SDS011;11327;52.334;9.506;2023-08-24T18:00:33;7.92;;;4.65;;
22318;SDS011;11327;52.334;9.506;2023-08-24T18:03:54;5.95;;;4.10;;
22318;SDS011;11327;52.334;9.506;2023-08-24T18:07:15;6.17;;;4.28;;
22318;SDS011;11327;52.334;9.506;2023-08-24T18:10:36;5.05;;;4.15;;
22318;SDS011;11327;52.334;9.506;2023-08-24T18:13:57;6.37;;;4.10;;
22318;SDS011;11327;52.334;9.506;2023-08-24T18:17:18;5.00;;;4.00;;
22318;SDS011;11327;52.334;9.506;2023-08-24T18:20:39;8.28;;;4.20;;
22318;SDS011;11327;52.334;9.506;2023-08-24T18:24:00;5.30;;;4.42;;
22318;SDS011;11327;52.334;9.506;2023-08-24T18:27:20;5.97;;;4.08;;
22318;SDS011;11327;52.334;9.506;2023-08-24T18:30:41;5.10;;;3.70;;
22318;SDS011;11327;52.334;9.506;2023-08-24T18:34:02;6.72;;;4.35;;
22318;SDS011;11327;52.334;9.506;2023-08-24T18:37:23;6.35;;;4.30;;
22318;SDS011;11327;52.334;9.506;2023-08-24T18:40:44;7.92;;;4.25;;
22318;SDS011;11327;52.334;9.506;2023-08-24T18:44:07;6.40;;;4.50;;
22318;SDS011;11327;52.334;9.506;2023-08-24T18:47:28;4.90;;;3.92;;
22318;SDS011;11327;52.334;9.506;2023-08-24T18:50:48;5.50;;;3.90;;
22318;SDS011;11327;52.334;9.506;2023-08-24T18:54:09;9.30;;;4.62;;
22318;SDS011;11327;52.334;9.506;2023-08-24T18:57:30;6.30;;;4.45;;
22318;SDS011;11327;52.334;9.506;2023-08-24T19:00:58;6.65;;;4.35;;
22318;SDS011;11327;52.334;9.506;2023-08-24T19:04:18;5.25;;;4.20;;
22318;SDS011;11327;52.334;9.506;2023-08-24T19:07:39;5.78;;;4.20;;
22318;SDS011;11327;52.334;9.506;2023-08-24T19:11:00;6.05;;;4.30;;
22318;SDS011;11327;52.334;9.506;2023-08-24T19:14:20;6.33;;;4.28;;
22318;SDS011;11327;52.334;9.506;2023-08-24T19:17:41;5.70;;;4.70;;
22318;SDS011;11327;52.334;9.506;2023-08-24T19:21:02;5.00;;;4.50;;
22318;SDS011;11327;52.334;9.506;2023-08-24T19:24:23;7.15;;;4.50;;
22318;SDS011;11327;52.334;9.506;2023-08-24T19:27:44;6.30;;;4.75;;
22318;SDS011;11327;52.334;9.506;2023-08-24T19:31:04;5.40;;;4.60;;
22318;SDS011;11327;52.334;9.506;2023-08-24T19:34:25;5.00;;;4.50;;
22318;SDS011;11327;52.334;9.506;2023-08-24T19:37:46;5.10;;;4.37;;
22318;SDS011;11327;52.334;9.506;2023-08-24T19:41:06;5.60;;;3.92;;
22318;SDS011;11327;52.334;9.506;2023-08-24T19:44:27;8.48;;;4.30;;
22318;SDS011;11327;52.334;9.506;2023-08-24T19:47:48;5.00;;;3.70;;
22318;SDS011;11327;52.334;9.506;2023-08-24T19:51:09;4.12;;;3.70;;
22318;SDS011;11327;52.334;9.506;2023-08-24T19:54:29;8.03;;;4.25;;
22318;SDS011;11327;52.334;9.506;2023-08-24T19:57:50;4.85;;;4.00;;
22318;SDS011;11327;52.334;9.506;2023-08-24T20:01:11;5.60;;;4.45;;
22318;SDS011;11327;52.334;9.506;2023-08-24T20:04:32;4.97;;;3.85;;
22318;SDS011;11327;52.334;9.506;2023-08-24T20:07:54;4.60;;;4.00;;
22318;SDS011;11327;52.334;9.506;2023-08-24T20:11:15;6.35;;;4.22;;
22318;SDS011;11327;52.334;9.506;2023-08-24T20:14:36;5.58;;;4.00;;
22318;SDS011;11327;52.334;9.506;2023-08-24T20:17:57;7.30;;;4.00;;
22318;SDS011;11327;52.334;9.506;2023-08-24T20:21:18;5.60;;;4.10;;
22318;SDS011;11327;52.334;9.506;2023-08-24T20:24:38;4.95;;;3.75;;
22318;SDS011;11327;52.334;9.506;2023-08-24T20:27:59;5.62;;;4.10;;
22318;SDS011;11327;52.334;9.506;2023-08-24T20:31:20;5.00;;;4.05;;
22318;SDS011;11327;52.334;9.506;2023-08-24T20:34:41;4.72;;;3.87;;